Time;durP1;ratioP1;P1;durP2;ratioP2;P2;SDS_P1;SDS_P2;PMS_P1;PMS_P2;Temp;Humidity;BMP_temperature;BMP_pressure;BME280_temperature;BME280_humidity;BME280_pressure;Samples;Min_cycle;Max_cycle;Signal;HPM_P1;HPM_P2
2022/12/10 00:01:26;;;;;;;47.97;41.08;;;;;;;11.29;87.75;99322.00;5072717;28;20048;-68
2022/12/10 00:03:53;;;;;;;57.37;42.73;;;;;;;11.28;87.59;99334.28;5071518;28;20052;-67
2022/12/10 00:06:26;;;;;;;49.97;43.33;;;;;;;11.21;87.19;99319.91;5079797;28;20059;-66
2022/12/10 00:08:53;;;;;;;43.53;38.83;;;;;;;11.23;87.01;99343.63;5058759;28;20055;-66
2022/12/10 00:11:21;;;;;;;51.73;42.73;;;;;;;11.25;86.89;99346.13;5065850;28;20076;-67
2022/12/10 00:13:49;;;;;;;45.87;41.03;;;;;;;11.06;86.67;99319.13;5061770;28;20044;-66
2022/12/10 00:16:22;;;;;;;46.20;40.60;;;;;;;11.18;86.59;99338.16;5066433;28;20445;-67
2022/12/10 00:18:49;;;;;;;52.63;41.60;;;;;;;11.16;86.54;99340.44;5068488;28;20056;-67
2022/12/10 00:21:19;;;;;;;62.83;57.20;;;;;;;11.14;86.36;99348.28;5078185;28;20080;-67
2022/12/10 00:23:47;;;;;;;45.88;41.05;;;;;;;11.08;86.47;99350.41;5072519;28;20048;-67
2022/12/10 00:26:23;;;;;;;46.23;40.33;;;;;;;11.00;86.40;99353.09;5063703;28;20048;-67
2022/12/10 00:28:51;;;;;;;46.17;40.43;;;;;;;11.01;86.35;99355.59;5059066;28;20498;-67
2022/12/10 00:31:19;;;;;;;45.67;39.93;;;;;;;11.02;86.44;99360.03;5075126;28;20479;-67
2022/12/10 00:33:47;;;;;;;44.17;38.80;;;;;;;10.98;86.63;99355.38;5083061;28;20052;-67
2022/12/10 00:36:22;;;;;;;44.43;39.67;;;;;;;10.90;86.70;99366.13;5064715;28;20048;-66
2022/12/10 00:38:50;;;;;;;53.57;40.47;;;;;;;10.91;87.09;99367.78;5079495;28;20093;-66
2022/12/10 00:41:17;;;;;;;42.57;38.00;;;;;;;10.94;87.11;99380.31;5072332;28;20135;-66
2022/12/10 00:43:44;;;;;;;43.47;38.77;;;;;;;10.95;87.34;99373.59;5080644;28;20045;-66
2022/12/10 00:46:13;;;;;;;46.63;40.27;;;;;;;10.95;87.15;99376.38;5080741;28;20471;-65
2022/12/10 00:48:41;;;;;;;52.83;42.57;;;;;;;10.92;87.37;99368.63;5077090;28;20414;-66
2022/12/10 00:51:13;;;;;;;47.60;40.43;;;;;;;10.98;87.30;99380.53;5073972;28;20060;-65
2022/12/10 00:53:40;;;;;;;45.73;38.60;;;;;;;10.94;87.58;99373.88;5074700;28;20549;-66
2022/12/10 00:56:09;;;;;;;38.87;35.07;;;;;;;10.89;87.48;99374.81;5077756;28;20383;-66
2022/12/10 00:58:38;;;;;;;37.30;33.47;;;;;;;10.84;87.59;99369.38;5083210;28;20052;-65
2022/12/10 01:01:07;;;;;;;38.23;34.00;;;;;;;10.86;87.69;99381.03;5070799;28;20056;-65
2022/12/10 01:03:35;;;;;;;39.17;34.65;;;;;;;10.83;88.17;99381.66;5072914;28;20094;-66
2022/12/10 01:06:16;;;;;;;37.30;33.77;;;;;;;10.82;87.51;99386.41;5076001;28;20443;-67
2022/12/10 01:08:43;;;;;;;40.27;36.10;;;;;;;10.84;87.43;99383.31;5073701;28;20094;-66
2022/12/10 01:11:12;;;;;;;43.13;38.23;;;;;;;10.80;87.31;99385.06;5072632;28;20503;-66
2022/12/10 01:13:40;;;;;;;45.47;38.87;;;;;;;10.79;87.43;99398.19;5061118;28;20064;-65
2022/12/10 01:16:09;;;;;;;42.10;37.47;;;;;;;10.78;87.19;99404.94;5052355;28;20487;-66
2022/12/10 01:18:36;;;;;;;50.03;39.53;;;;;;;10.73;87.13;99398.63;5076982;28;20063;-65
2022/12/10 01:21:06;;;;;;;63.73;49.97;;;;;;;10.75;86.77;99413.09;5063748;28;20110;-65
2022/12/10 01:23:34;;;;;;;53.17;42.75;;;;;;;10.59;86.72;99395.81;5069064;28;20044;-66
2022/12/10 01:26:04;;;;;;;44.37;39.07;;;;;;;10.69;86.37;99417.94;5082493;28;20048;-66
2022/12/10 01:28:33;;;;;;;45.75;41.05;;;;;;;10.66;86.25;99411.00;5074542;28;20148;-66
2022/12/10 01:31:07;;;;;;;46.30;41.10;;;;;;;10.61;86.05;99422.28;5073570;28;20446;-65
2022/12/10 01:33:35;;;;;;;44.20;39.33;;;;;;;10.62;85.95;99431.50;5073899;28;20098;-66
2022/12/10 01:36:08;;;;;;;44.93;40.03;;;;;;;10.52;85.89;99429.72;5074519;28;20057;-67
2022/12/10 01:38:36;;;;;;;46.17;40.63;;;;;;;10.54;85.66;99446.19;5060258;28;20070;-66
2022/12/10 01:41:03;;;;;;;44.47;38.97;;;;;;;10.51;85.82;99441.19;5076495;28;20139;-67
2022/12/10 01:43:58;;;;;;;46.20;39.33;;;;;;;10.32;85.62;99432.88;5073617;28;20047;-67
2022/12/10 01:46:30;;;;;;;45.47;39.23;;;;;;;10.38;85.68;99448.41;5069981;28;20048;-67
2022/12/10 01:48:59;;;;;;;42.00;37.60;;;;;;;10.32;85.72;99444.03;5080940;28;20052;-67
2022/12/10 01:51:34;;;;;;;42.77;38.67;;;;;;;10.35;85.58;99449.00;5078249;28;20308;-67
2022/12/10 01:54:04;;;;;;;43.17;38.63;;;;;;;10.32;85.52;99452.41;5073901;28;20053;-67
2022/12/10 01:56:36;;;;;;;43.95;37.80;;;;;;;10.30;85.56;99458.31;5059637;28;20048;-66
2022/12/10 01:59:04;;;;;;;39.40;35.67;;;;;;;10.21;85.56;99451.72;5074623;28;20423;-66
2022/12/10 02:01:46;;;;;;;38.40;33.90;;;;;;;10.25;85.66;99465.91;5068704;28;20044;-66
2022/12/10 02:04:19;;;;;;;37.77;34.07;;;;;;;10.24;85.79;99469.84;5070811;28;20068;-66
2022/12/10 02:07:06;;;;;;;46.93;42.70;;;;;;;10.21;85.67;99466.50;5077661;28;20045;-66
2022/12/10 02:09:44;;;;;;;39.30;35.13;;;;;;;10.20;85.52;99459.28;5065176;28;20052;-66
2022/12/10 02:12:27;;;;;;;34.00;30.67;;;;;;;10.16;85.64;99461.03;5074004;28;20507;-66
2022/12/10 02:15:12;;;;;;;36.57;32.77;;;;;;;10.15;85.54;99462.16;5064175;28;20060;-66
2022/12/10 02:17:45;;;;;;;33.77;30.27;;;;;;;10.17;85.43;99461.84;5076375;28;20058;-67
2022/12/10 02:20:26;;;;;;;31.13;28.60;;;;;;;10.16;85.61;99483.34;5069511;28;20053;-66
2022/12/10 02:23:11;;;;;;;46.30;42.43;;;;;;;9.96;85.51;99466.94;5073345;28;20052;-66
2022/12/10 02:25:59;;;;;;;37.17;33.20;;;;;;;10.00;85.40;99493.09;5074091;28;20054;-66
2022/12/10 02:28:44;;;;;;;38.40;34.57;;;;;;;9.92;85.09;99491.00;5065093;28;20047;-66
2022/12/10 02:31:16;;;;;;;34.60;31.23;;;;;;;9.90;85.05;99487.66;5065872;28;20053;-66
2022/12/10 02:33:49;;;;;;;35.77;32.07;;;;;;;9.88;85.03;99501.06;5064339;28;20049;-67
2022/12/10 02:36:18;;;;;;;37.27;33.23;;;;;;;9.82;84.78;99502.28;5070957;28;20040;-66
2022/12/10 02:38:49;;;;;;;38.38;34.10;;;;;;;9.81;84.67;99497.81;5053794;28;20063;-67
2022/12/10 02:41:22;;;;;;;36.37;32.83;;;;;;;9.78;84.57;99495.63;5058591;28;20056;-66
2022/12/10 02:43:53;;;;;;;50.53;46.43;;;;;;;9.75;84.75;99501.84;5053816;28;20052;-66
2022/12/10 02:46:22;;;;;;;35.17;31.47;;;;;;;9.71;84.63;99493.25;5035307;28;20053;-66
2022/12/10 02:48:51;;;;;;;29.13;26.48;;;;;;;9.66;84.85;99494.13;5061270;28;20048;-65
2022/12/10 02:51:18;;;;;;;28.70;26.03;;;;;;;9.72;85.13;99497.69;5071949;28;20048;-66
2022/12/10 02:53:45;;;;;;;34.07;30.83;;;;;;;9.68;84.93;99502.22;5072843;28;20052;-65
2022/12/10 02:56:27;;;;;;;30.20;27.10;;;;;;;9.64;84.78;99507.56;5051386;28;20060;-66
2022/12/10 02:59:12;;;;;;;38.03;30.20;;;;;;;9.56;84.80;99497.06;5064953;28;20056;-66
2022/12/10 03:01:51;;;;;;;29.40;26.70;;;;;;;9.52;84.80;99512.72;5081432;28;20060;-66
2022/12/10 03:04:24;;;;;;;31.53;28.73;;;;;;;9.51;85.24;99513.88;5084249;28;20048;-66
2022/12/10 03:06:55;;;;;;;32.37;29.07;;;;;;;9.48;85.39;99517.25;5070893;28;20049;-66
2022/12/10 03:09:27;;;;;;;30.20;27.50;;;;;;;9.53;85.13;99510.78;5066272;28;20048;-66
2022/12/10 03:12:02;;;;;;;30.03;27.50;;;;;;;9.49;85.11;99505.78;5067966;28;20410;-66
2022/12/10 03:14:31;;;;;;;27.67;25.43;;;;;;;9.55;85.03;99520.50;5061468;28;20047;-67
2022/12/10 03:17:00;;;;;;;28.27;25.75;;;;;;;9.52;84.88;99517.47;5071825;28;20079;-66
2022/12/10 03:19:35;;;;;;;27.60;25.37;;;;;;;9.49;84.71;99521.69;5072469;28;20052;-67
2022/12/10 03:22:04;;;;;;;31.20;27.83;;;;;;;9.52;84.63;99521.09;5065032;28;20048;-66
2022/12/10 03:24:34;;;;;;;32.30;29.47;;;;;;;9.48;84.57;99520.03;5069262;28;20045;-67
2022/12/10 03:27:04;;;;;;;25.77;23.53;;;;;;;9.49;84.65;99527.25;5068765;28;20067;-67
2022/12/10 03:29:37;;;;;;;29.00;26.55;;;;;;;9.50;84.70;99534.50;5080861;28;20105;-67
2022/12/10 03:32:04;;;;;;;27.97;25.57;;;;;;;9.50;84.72;99545.63;5066712;28;20047;-66
2022/12/10 03:34:33;;;;;;;48.87;45.37;;;;;;;9.47;84.88;99546.25;5071767;28;20048;-67
2022/12/10 03:37:01;;;;;;;36.73;33.50;;;;;;;9.45;84.86;99548.50;5078462;28;20052;-67
2022/12/10 03:39:29;;;;;;;33.23;26.70;;;;;;;9.42;84.80;99549.09;5083180;28;20074;-66
2022/12/10 03:41:55;;;;;;;26.90;24.57;;;;;;;9.35;85.20;99543.06;5070132;28;20048;-67
2022/12/10 03:44:30;;;;;;;26.57;23.97;;;;;;;9.37;85.03;99540.81;5062280;28;20049;-67
2022/12/10 03:46:57;;;;;;;26.73;24.20;;;;;;;9.35;85.26;99543.88;5073072;28;20052;-68
2022/12/10 03:49:24;;;;;;;25.83;23.47;;;;;;;9.35;85.68;99543.06;5063645;28;20060;-67
2022/12/10 03:51:51;;;;;;;25.00;23.03;;;;;;;9.34;85.70;99553.38;5071670;28;20133;-66
2022/12/10 03:54:18;;;;;;;24.70;22.17;;;;;;;9.31;85.57;99548.38;5070384;28;20495;-66
2022/12/10 03:56:45;;;;;;;24.83;22.53;;;;;;;9.27;85.83;99538.97;5048704;28;20051;-67
2022/12/10 03:59:12;;;;;;;26.97;24.63;;;;;;;9.37;85.55;99549.16;5070799;28;20411;-66
2022/12/10 04:01:41;;;;;;;23.40;21.70;;;;;;;9.35;85.56;99548.63;5067207;28;20056;-66
2022/12/10 04:04:08;;;;;;;24.50;22.40;;;;;;;9.34;85.65;99549.75;5061996;28;20044;-67
2022/12/10 04:06:37;;;;;;;26.43;24.33;;;;;;;9.35;85.51;99565.34;5071524;28;20467;-67
2022/12/10 04:09:04;;;;;;;25.90;23.73;;;;;;;9.34;85.30;99569.25;5068876;28;20101;-66
2022/12/10 04:11:31;;;;;;;23.53;21.63;;;;;;;9.32;85.30;99577.06;5051818;28;20052;-67
2022/12/10 04:16:43;;;;;;;25.83;23.30;;;;;;;9.17;85.42;99551.06;5070919;28;20056;-67
2022/12/10 04:19:13;;;;;;;22.90;21.20;;;;;;;9.27;85.47;99555.69;5072108;28;20136;-67
2022/12/10 04:27:22;;;;;;;24.43;22.57;;;;;;;9.28;85.93;99582.41;5071148;28;20055;-67
2022/12/10 04:29:49;;;;;;;24.93;22.83;;;;;;;9.29;85.92;99577.66;5075070;28;20048;-67
2022/12/10 04:32:17;;;;;;;25.70;23.47;;;;;;;9.21;85.89;99571.63;5071890;28;20041;-66
2022/12/10 04:34:44;;;;;;;25.97;23.90;;;;;;;9.21;85.79;99571.63;5071776;28;20491;-67
2022/12/10 04:37:12;;;;;;;25.90;23.80;;;;;;;9.27;85.64;99577.97;5070966;28;20052;-67
2022/12/10 04:39:39;;;;;;;24.43;22.53;;;;;;;9.25;85.28;99578.25;5071713;28;20057;-67
2022/12/10 04:42:06;;;;;;;24.03;22.23;;;;;;;9.25;85.00;99571.84;5065017;28;20102;-66
2022/12/10 04:44:34;;;;;;;23.87;22.10;;;;;;;9.25;84.88;99574.63;5066772;28;20056;-67
2022/12/10 04:47:01;;;;;;;25.13;23.10;;;;;;;9.23;84.71;99574.94;5041184;28;20052;-67
2022/12/10 04:49:27;;;;;;;24.33;22.53;;;;;;;9.23;84.89;99574.94;5079528;28;20040;-66
2022/12/10 04:51:55;;;;;;;24.30;22.57;;;;;;;9.22;84.82;99573.28;5059998;28;20045;-66
2022/12/10 04:54:23;;;;;;;24.70;22.50;;;;;;;9.16;84.60;99571.69;5060395;28;20102;-67
2022/12/10 04:56:49;;;;;;;23.87;22.07;;;;;;;9.22;84.57;99580.81;5071390;28;20048;-67
2022/12/10 04:59:17;;;;;;;23.90;22.10;;;;;;;9.16;84.42;99581.97;5079494;28;20048;-66
2022/12/10 05:01:44;;;;;;;23.70;21.80;;;;;;;9.17;84.37;99600.38;5068222;28;20049;-66
2022/12/10 05:04:14;;;;;;;24.27;22.37;;;;;;;9.14;84.06;99601.78;5051865;28;20119;-66
2022/12/10 05:06:41;;;;;;;25.27;23.20;;;;;;;9.01;84.50;99592.16;5070361;28;20454;-67
2022/12/10 05:09:09;;;;;;;24.50;22.40;;;;;;;9.04;84.00;99598.28;5046256;28;20125;-66
2022/12/10 05:11:36;;;;;;;25.00;23.07;;;;;;;9.04;84.08;99604.66;5078793;28;20063;-65
2022/12/10 05:14:03;;;;;;;24.10;22.27;;;;;;;8.96;83.92;99608.09;5077056;28;20132;-66
2022/12/10 05:16:32;;;;;;;24.17;22.27;;;;;;;8.86;84.07;99597.06;5059615;28;20075;-65
2022/12/10 05:18:59;;;;;;;26.47;24.13;;;;;;;8.80;83.99;99604.63;5067459;28;20057;-66
2022/12/10 05:24:14;;;;;;;24.63;22.63;;;;;;;8.69;83.93;99631.72;5080749;28;20044;-66
2022/12/10 05:26:41;;;;;;;25.63;23.63;;;;;;;8.61;83.66;99634.28;5069445;28;20048;-66
2022/12/10 05:29:08;;;;;;;26.23;24.17;;;;;;;8.58;83.93;99643.19;5074488;28;20056;-66
2022/12/10 05:31:35;;;;;;;28.20;25.87;;;;;;;8.57;84.00;99656.28;5074326;28;20578;-66
2022/12/10 05:34:03;;;;;;;26.03;23.90;;;;;;;8.49;84.06;99643.00;5088551;28;20051;-66
2022/12/10 05:36:31;;;;;;;25.40;23.20;;;;;;;8.54;84.00;99665.22;5095750;28;20482;-67
2022/12/10 05:38:58;;;;;;;27.70;25.50;;;;;;;8.50;84.25;99662.19;5073738;28;20044;-67
2022/12/10 05:41:30;;;;;;;26.13;24.10;;;;;;;8.47;84.03;99675.84;5073538;28;20052;-67
2022/12/10 05:43:58;;;;;;;25.20;23.00;;;;;;;8.42;84.64;99682.28;5073970;28;20040;-66
2022/12/10 05:46:28;;;;;;;25.50;23.30;;;;;;;8.36;85.03;99688.13;5070319;28;20123;-67
2022/12/10 05:48:55;;;;;;;23.63;21.50;;;;;;;8.39;85.26;99693.16;5078597;28;20421;-66
2022/12/10 05:51:26;;;;;;;23.47;21.40;;;;;;;8.38;85.06;99692.31;5073879;28;20045;-65
2022/12/10 05:53:54;;;;;;;25.30;23.13;;;;;;;8.43;85.11;99697.84;5067039;28;20049;-66
2022/12/10 05:56:23;;;;;;;24.93;22.73;;;;;;;8.44;84.96;99699.50;5073113;28;20487;-66
2022/12/10 05:58:56;;;;;;;26.20;23.87;;;;;;;8.43;84.85;99694.22;5072282;28;20056;-66
2022/12/10 06:01:26;;;;;;;27.27;24.87;;;;;;;8.37;85.09;99684.22;5068920;28;20052;-66
2022/12/10 06:03:53;;;;;;;26.60;24.45;;;;;;;8.51;84.87;99701.97;5072907;28;20059;-66
2022/12/10 06:06:22;;;;;;;25.30;23.00;;;;;;;8.54;84.75;99701.38;5070063;28;20049;-66
2022/12/10 06:08:50;;;;;;;25.57;23.33;;;;;;;8.47;85.00;99696.13;5051702;28;20055;-66
2022/12/10 06:11:18;;;;;;;26.20;23.90;;;;;;;8.52;84.43;99703.66;5073044;28;20056;-66
2022/12/10 06:13:45;;;;;;;26.90;24.70;;;;;;;8.42;84.26;99704.53;5060811;28;20048;-66
2022/12/10 06:16:15;;;;;;;27.35;24.90;;;;;;;8.48;84.06;99716.47;5066905;28;20522;-66
2022/12/10 06:18:42;;;;;;;26.87;24.43;;;;;;;8.47;83.70;99717.56;5080938;28;20127;-66
2022/12/10 06:21:12;;;;;;;26.10;23.90;;;;;;;8.38;83.54;99719.31;5071559;28;20059;-66
2022/12/10 06:23:39;;;;;;;;;;;;;;;8.00;84.66;99735.56;5068677;28;20051;-66
2022/12/10 06:26:16;;;;;;;25.73;23.23;;;;;;;8.18;84.00;99729.38;5056735;28;19997;-66
2022/12/10 06:28:47;;;;;;;24.57;22.37;;;;;;;8.13;83.79;99729.38;5066341;28;20470;-66
2022/12/10 06:31:15;;;;;;;26.50;24.00;;;;;;;8.17;83.79;99735.22;5067897;28;20044;-65
2022/12/10 06:33:44;;;;;;;28.60;26.20;;;;;;;8.14;83.95;99736.63;5072033;28;20577;-66
2022/12/10 06:36:13;;;;;;;29.67;26.23;;;;;;;8.16;83.64;99730.78;5072213;28;20052;-66
2022/12/10 06:38:40;;;;;;;33.72;25.80;;;;;;;8.10;83.79;99724.38;5072461;28;20048;-66
2022/12/10 06:41:11;;;;;;;29.37;26.27;;;;;;;8.16;83.85;99731.59;5078505;28;20517;-66
2022/12/10 06:43:38;;;;;;;27.00;24.47;;;;;;;8.15;84.12;99732.72;5070944;28;20037;-65
2022/12/10 06:46:10;;;;;;;29.77;24.17;;;;;;;8.14;84.33;99731.06;5062940;28;20514;-66
2022/12/10 06:48:38;;;;;;;27.23;24.70;;;;;;;8.16;84.43;99734.38;5069550;28;20052;-66
2022/12/10 06:51:05;;;;;;;27.20;24.57;;;;;;;8.19;84.37;99733.81;5068835;28;20059;-66
2022/12/10 06:53:34;;;;;;;26.20;23.67;;;;;;;8.19;84.19;99733.81;5056875;28;20055;-66
2022/12/10 06:56:03;;;;;;;26.23;23.63;;;;;;;8.14;84.03;99736.63;5077957;28;20052;-65
2022/12/10 06:58:30;;;;;;;27.10;24.70;;;;;;;8.14;83.86;99730.25;5071969;28;20048;-66
2022/12/10 07:01:21;;;;;;;26.83;24.37;;;;;;;8.03;83.70;99732.22;5054815;28;20060;-66
2022/12/10 07:03:50;;;;;;;29.47;26.30;;;;;;;8.00;84.08;99739.19;5065487;28;20415;-65
2022/12/10 07:06:19;;;;;;;27.73;25.03;;;;;;;7.92;84.60;99739.75;5071178;28;20055;-66
2022/12/10 07:08:46;;;;;;;25.77;23.43;;;;;;;7.93;84.58;99752.56;5064911;28;20044;-66
2022/12/10 07:11:15;;;;;;;30.10;27.43;;;;;;;8.03;84.63;99771.13;5054830;28;20048;-66
2022/12/10 07:13:44;;;;;;;29.17;26.52;;;;;;;7.94;84.50;99764.50;5070935;28;20082;-65
2022/12/10 07:16:22;;;;;;;26.67;24.53;;;;;;;7.76;84.57;99740.91;5082825;28;20471;-65
2022/12/10 07:18:50;;;;;;;24.13;22.27;;;;;;;7.80;85.06;99758.72;5066609;28;20052;-66
2022/12/10 07:21:31;;;;;;;43.27;40.23;;;;;;;7.84;84.96;99768.97;5079215;28;20048;-66
2022/12/10 07:24:01;;;;;;;41.40;38.38;;;;;;;7.75;85.53;99767.88;5058722;28;20045;-66
2022/12/10 07:26:30;;;;;;;26.50;24.35;;;;;;;7.69;86.09;99769.03;5051041;28;20056;-66
2022/12/10 07:28:58;;;;;;;25.47;23.57;;;;;;;7.68;86.12;99766.50;5088713;28;20055;-66
2022/12/10 07:31:26;;;;;;;29.20;26.50;;;;;;;7.67;86.38;99774.00;5069074;28;20055;-66
2022/12/10 07:33:54;;;;;;;28.23;25.87;;;;;;;7.69;86.77;99780.13;5071985;28;20454;-67
2022/12/10 07:36:22;;;;;;;28.07;25.70;;;;;;;7.68;86.80;99806.25;5070147;28;20502;-66
2022/12/10 07:38:51;;;;;;;31.03;28.23;;;;;;;7.70;86.81;99817.09;5071492;28;20449;-66
2022/12/10 07:41:20;;;;;;;30.03;27.47;;;;;;;7.72;86.96;99815.69;5054774;28;20045;-66
2022/12/10 07:43:47;;;;;;;28.97;26.17;;;;;;;7.78;86.71;99810.97;5071371;28;20479;-66
2022/12/10 07:46:23;;;;;;;30.93;28.20;;;;;;;7.79;86.61;99818.16;5064177;28;20105;-66
2022/12/10 07:48:50;;;;;;;29.47;26.90;;;;;;;7.77;86.83;99815.69;5068798;28;20047;-66
2022/12/10 07:51:20;;;;;;;30.70;28.07;;;;;;;7.83;86.67;99828.47;5065959;28;20048;-66
2022/12/10 07:53:50;;;;;;;31.15;28.52;;;;;;;7.80;86.80;99830.97;5071243;28;20047;-66
2022/12/10 07:56:17;;;;;;;31.95;29.17;;;;;;;7.78;86.99;99836.78;5064217;28;20056;-65
2022/12/10 07:58:45;;;;;;;29.67;27.23;;;;;;;7.80;86.93;99830.97;5052760;28;20060;-66
2022/12/10 08:01:15;;;;;;;26.70;24.53;;;;;;;7.76;87.17;99825.16;5068611;28;20044;-66
2022/12/10 08:03:42;;;;;;;27.80;25.63;;;;;;;7.77;87.43;99837.09;5060002;28;20448;-67
2022/12/10 08:06:13;;;;;;;28.93;26.37;;;;;;;7.79;87.42;99844.03;5052896;28;20055;-67
2022/12/10 08:08:41;;;;;;;27.40;25.27;;;;;;;7.77;87.63;99840.69;5065516;28;20083;-66
2022/12/10 08:11:09;;;;;;;27.23;25.27;;;;;;;7.71;87.55;99833.47;5071954;28;20139;-67
2022/12/10 08:13:36;;;;;;;26.83;24.77;;;;;;;7.75;87.65;99859.59;5071043;28;20044;-67
2022/12/10 08:16:07;;;;;;;46.60;43.83;;;;;;;7.66;87.38;99871.53;5081448;28;20071;-66
2022/12/10 08:18:34;;;;;;;30.43;28.13;;;;;;;7.57;87.53;99871.28;5072346;28;20056;-67
2022/12/10 08:21:11;;;;;;;31.47;29.43;;;;;;;7.53;87.38;99884.88;5072511;28;20044;-66
2022/12/10 08:23:38;;;;;;;24.33;22.37;;;;;;;7.40;88.00;99870.72;5071156;28;20491;-66
2022/12/10 08:26:07;;;;;;;24.03;22.43;;;;;;;7.43;88.54;99886.81;5071571;28;20045;-66
2022/12/10 08:28:35;;;;;;;28.67;26.50;;;;;;;7.45;88.74;99881.81;5070761;28;20045;-67
2022/12/10 08:31:02;;;;;;;25.43;23.53;;;;;;;7.62;89.14;99862.94;5067453;28;20056;-67
2022/12/10 08:33:29;;;;;;;24.00;22.23;;;;;;;7.78;89.26;99856.25;5070657;28;20098;-66
2022/12/10 08:36:00;;;;;;;24.00;22.27;;;;;;;8.13;89.33;99851.75;5070965;28;20059;-67
2022/12/10 08:38:27;;;;;;;21.27;19.87;;;;;;;8.39;89.51;99846.16;5070657;28;20048;-66
2022/12/10 08:40:54;;;;;;;22.90;21.37;;;;;;;8.56;88.96;99854.19;5063069;28;20094;-66
2022/12/10 08:43:21;;;;;;;19.63;18.33;;;;;;;8.51;88.65;99829.97;5071371;28;20079;-67
2022/12/10 08:45:48;;;;;;;20.43;19.03;;;;;;;8.44;87.48;99852.53;5083825;28;20049;-67
2022/12/10 08:48:15;;;;;;;20.03;18.83;;;;;;;8.22;87.16;99852.84;5074066;28;20131;-67
2022/12/10 08:50:42;;;;;;;34.00;31.80;;;;;;;7.98;86.94;99849.84;5072117;28;20411;-67
2022/12/10 08:53:08;;;;;;;20.17;18.87;;;;;;;7.74;87.06;99865.44;5072019;28;20541;-66
2022/12/10 08:55:39;;;;;;;20.53;19.13;;;;;;;7.64;87.56;99871.84;5072169;28;20112;-66
2022/12/10 08:58:14;;;;;;;21.53;20.13;;;;;;;7.59;87.82;99896.84;5069355;28;20044;-66
2022/12/10 09:00:41;;;;;;;25.83;23.63;;;;;;;7.49;87.53;99899.63;5076805;28;20566;-67
2022/12/10 09:03:08;;;;;;;25.70;23.60;;;;;;;7.42;87.68;99899.03;5065472;28;20054;-67
2022/12/10 09:05:36;;;;;;;28.23;25.93;;;;;;;7.50;87.96;99909.63;5066589;28;20056;-67
2022/12/10 09:08:03;;;;;;;25.97;24.07;;;;;;;8.03;89.48;99912.94;5078403;28;20059;-67
2022/12/10 09:10:31;;;;;;;25.53;23.53;;;;;;;8.76;90.04;99921.72;5076283;28;20048;-67
2022/12/10 09:12:58;;;;;;;24.17;22.30;;;;;;;9.62;90.52;99910.41;5083435;28;20098;-66
2022/12/10 09:15:29;;;;;;;24.53;22.93;;;;;;;10.55;90.95;99922.41;5056461;28;20058;-67
2022/12/10 09:17:56;;;;;;;23.63;22.10;;;;;;;11.56;90.95;99925.03;5068323;28;20059;-67
2022/12/10 09:20:23;;;;;;;22.10;20.67;;;;;;;12.55;90.67;99924.78;5074257;28;20569;-66
2022/12/10 09:22:50;;;;;;;22.02;20.50;;;;;;;13.46;90.02;99921.22;5070413;28;20045;-66
2022/12/10 09:25:16;;;;;;;22.42;21.02;;;;;;;14.29;88.69;99925.66;5073177;28;20044;-66
2022/12/10 09:27:43;;;;;;;22.08;20.70;;;;;;;14.88;87.22;99932.78;5072848;28;20060;-67
2022/12/10 09:30:11;;;;;;;20.48;19.27;;;;;;;15.40;85.31;99932.13;5075566;28;20106;-66
2022/12/10 09:32:38;;;;;;;20.15;18.92;;;;;;;16.02;83.73;99940.31;5075279;28;20048;-67
2022/12/10 09:35:06;;;;;;;21.00;19.58;;;;;;;16.81;81.77;99941.00;5075152;28;20487;-66
2022/12/10 09:37:32;;;;;;;19.90;18.65;;;;;;;17.26;78.63;99937.63;5054197;28;20059;-66
2022/12/10 09:39:59;;;;;;;19.77;18.52;;;;;;;16.59;76.64;99934.41;5053272;28;20052;-66
2022/12/10 09:42:52;;;;;;;24.45;23.05;;;;;;;15.85;77.56;99943.13;5059396;28;20114;-66
2022/12/10 09:45:59;;;;;;;20.58;19.25;;;;;;;15.78;77.77;99960.50;5067945;28;20044;-65
2022/12/10 09:48:32;;;;;;;20.27;18.98;;;;;;;16.47;75.82;99967.25;5073000;28;20052;-66
2022/12/10 09:51:16;;;;;;;22.52;21.13;;;;;;;17.17;75.21;99977.19;5078074;28;20059;-67
2022/12/10 09:53:44;;;;;;;20.70;19.50;;;;;;;17.86;72.36;99978.81;5052440;28;20506;-66
2022/12/10 09:56:22;;;;;;;20.30;19.17;;;;;;;18.60;70.93;99985.66;5076415;28;20051;-66
2022/12/10 09:58:49;;;;;;;21.02;19.63;;;;;;;19.12;68.66;100001.25;5069670;28;20059;-67
2022/12/10 10:01:19;;;;;;;19.48;18.38;;;;;;;19.45;66.91;99991.81;5055913;28;20052;-67
2022/12/10 10:03:46;;;;;;;19.08;17.98;;;;;;;19.74;65.64;100002.09;5069463;28;20048;-66
2022/12/10 10:06:15;;;;;;;21.20;19.90;;;;;;;20.10;64.78;99985.03;5070068;28;20671;-66
2022/12/10 10:08:57;;;;;;;20.13;18.92;;;;;;;20.39;64.33;99999.22;5073707;28;20059;-66
2022/12/10 10:11:33;;;;;;;20.58;19.27;;;;;;;20.46;62.84;99994.59;5073720;28;20071;-66
2022/12/10 10:14:03;;;;;;;19.42;18.33;;;;;;;20.91;61.68;99998.28;5061890;28;20490;-67
2022/12/10 10:16:53;;;;;;;18.27;17.30;;;;;;;21.24;61.52;100012.16;5069297;28;20052;-66
2022/12/10 10:19:34;;;;;;;22.70;21.60;;;;;;;21.63;59.81;100018.03;5071419;28;20131;-67
2022/12/10 10:22:01;;;;;;;27.08;25.75;;;;;;;21.99;57.89;100011.19;5081553;28;20044;-67
2022/12/10 10:24:34;;;;;;;34.10;32.45;;;;;;;22.32;57.18;100016.41;5077530;28;20040;-67
2022/12/10 10:27:20;;;;;;;27.90;26.38;;;;;;;22.64;56.63;100011.41;5070707;28;21093;-66
2022/12/10 10:29:50;;;;;;;18.55;17.55;;;;;;;22.73;54.78;100011.16;5069960;28;20427;-66
2022/12/10 10:32:48;;;;;;;19.25;18.15;;;;;;;22.81;53.89;100004.44;5069108;28;20086;-67
2022/12/10 10:35:23;;;;;;;19.25;18.08;;;;;;;23.02;54.30;99981.25;5072697;28;20425;-66
2022/12/10 10:37:56;;;;;;;17.95;16.85;;;;;;;23.50;52.54;99973.13;5054862;28;20048;-67
2022/12/10 10:40:26;;;;;;;18.52;17.50;;;;;;;23.34;51.25;99981.81;5072097;28;20040;-66
2022/12/10 10:42:55;;;;;;;;;;;;;;;23.34;55.30;99972.44;5061827;28;20048;-66
2022/12/10 10:45:36;;;;;;;32.42;30.90;;;;;;;23.87;52.70;99973.34;5073922;28;19920;-67
2022/12/10 10:48:17;;;;;;;24.05;22.83;;;;;;;24.10;49.88;99969.56;5066472;28;20065;-67
2022/12/10 10:51:03;;;;;;;19.38;18.33;;;;;;;23.86;49.13;99968.00;5067502;28;20750;-66
2022/12/10 10:53:40;;;;;;;19.23;18.23;;;;;;;23.96;48.25;99977.91;5067637;28;20052;-66
2022/12/10 10:56:20;;;;;;;17.67;16.77;;;;;;;23.56;48.12;99967.94;5073306;28;20045;-66
2022/12/10 10:59:02;;;;;;;18.02;17.13;;;;;;;23.16;47.78;99972.97;5062869;28;20364;-67
2022/12/10 11:01:50;;;;;;;21.02;20.00;;;;;;;23.19;48.12;99988.47;5072707;28;20048;-67
2022/12/10 11:04:37;;;;;;;17.25;16.38;;;;;;;22.79;47.13;99992.59;5069497;28;20044;-66
2022/12/10 11:07:34;;;;;;;17.13;16.30;;;;;;;22.40;47.47;99977.56;5069747;28;20055;-67
2022/12/10 11:10:12;;;;;;;18.42;17.45;;;;;;;22.39;46.82;99976.75;5050025;28;20175;-67
2022/12/10 11:12:40;;;;;;;17.60;16.50;;;;;;;21.82;46.56;99969.78;5067305;28;20075;-66
2022/12/10 11:15:22;;;;;;;17.98;16.92;;;;;;;20.91;47.58;99981.25;5066559;28;20449;-67
2022/12/10 11:17:51;;;;;;;29.08;27.48;;;;;;;20.07;47.88;99987.75;5069459;28;20041;-66
2022/12/10 11:20:22;;;;;;;20.98;19.85;;;;;;;19.55;48.92;99980.81;5071623;28;20048;-66
2022/12/10 11:23:01;;;;;;;17.80;16.65;;;;;;;19.22;49.50;99980.13;5072167;28;20388;-67
2022/12/10 11:25:54;;;;;;;17.20;16.30;;;;;;;18.79;51.00;99973.00;5084415;28;20036;-67
2022/12/10 11:28:30;;;;;;;19.65;18.40;;;;;;;18.67;50.71;99965.28;5034972;28;20049;-67
2022/12/10 11:31:12;;;;;;;19.90;18.80;;;;;;;18.30;51.56;99972.81;5087003;28;20040;-67
2022/12/10 11:33:55;;;;;;;18.88;17.77;;;;;;;18.11;51.99;99971.28;5075075;28;20052;-66
2022/12/10 11:36:50;;;;;;;18.10;17.10;;;;;;;17.71;52.01;99963.28;5072263;28;20445;-67
2022/12/10 11:39:26;;;;;;;17.95;16.95;;;;;;;17.50;52.30;99962.41;5065173;28;20056;-66
2022/12/10 11:42:02;;;;;;;18.15;17.15;;;;;;;17.32;52.42;99949.56;5072122;28;20063;-66
2022/12/10 11:44:48;;;;;;;17.63;16.55;;;;;;;17.16;53.03;99936.06;5045173;28;20067;-67
2022/12/10 11:47:30;;;;;;;30.52;28.63;;;;;;;17.25;52.78;99950.09;5062832;28;20063;-66
2022/12/10 11:50:15;;;;;;;17.90;16.95;;;;;;;17.34;52.58;99947.25;5078845;28;20116;-67
2022/12/10 11:53:00;;;;;;;18.73;17.65;;;;;;;17.19;52.84;99940.97;5073576;28;20048;-67